createdAt,value
2023-01-01T00:00:01.910Z,18.60
2023-01-01T00:02:37.490Z,18.60
2023-01-01T00:05:06.492Z,18.60
2023-01-01T00:07:33.500Z,18.60
2023-01-01T00:10:18.883Z,18.60
2023-01-01T00:12:45.786Z,18.60
2023-01-01T00:15:12.648Z,18.60
2023-01-01T00:17:39.502Z,18.70
2023-01-01T00:20:07.952Z,18.70
2023-01-01T00:22:53.881Z,18.70
2023-01-01T00:25:21.755Z,18.70
2023-01-01T00:27:48.609Z,18.70
2023-01-01T00:30:15.498Z,18.70
2023-01-01T00:32:42.375Z,18.70
2023-01-01T00:35:21.936Z,18.70
2023-01-01T00:37:48.810Z,18.70
2023-01-01T00:40:15.724Z,18.70
2023-01-01T00:42:42.582Z,18.60
2023-01-01T00:45:13.133Z,18.60
2023-01-01T00:47:42.508Z,18.70
2023-01-01T00:50:09.457Z,18.60
2023-01-01T00:52:36.319Z,18.70
2023-01-01T00:55:03.323Z,18.70
2023-01-01T00:57:30.257Z,18.70
2023-01-01T00:59:57.126Z,18.70
2023-01-01T01:02:24.352Z,18.80
2023-01-01T01:04:51.434Z,18.80
2023-01-01T01:07:18.316Z,18.80
2023-01-01T01:09:45.550Z,18.70
2023-01-01T01:12:17.658Z,18.70
2023-01-01T01:14:46.698Z,18.70
2023-01-01T01:17:13.572Z,18.70
2023-01-01T01:19:40.467Z,18.70
2023-01-01T01:22:07.356Z,18.60
2023-01-01T01:24:34.237Z,18.60
2023-01-01T01:27:01.153Z,18.60
2023-01-01T01:29:28.080Z,18.60
2023-01-01T01:31:54.986Z,18.60
2023-01-01T01:34:27.510Z,18.60
2023-01-01T01:36:55.467Z,18.60
2023-01-01T01:39:22.625Z,18.60
2023-01-01T01:41:49.695Z,18.60
2023-01-01T01:44:53.925Z,18.60
2023-01-01T01:47:47.797Z,18.70
2023-01-01T01:50:32.294Z,18.70
2023-01-01T01:53:09.488Z,18.60
2023-01-01T01:55:41.077Z,18.60
2023-01-01T01:58:11.769Z,18.60
2023-01-01T02:00:38.795Z,18.60
2023-01-01T02:03:23.541Z,18.60
2023-01-01T02:05:52.066Z,18.50
2023-01-01T02:08:21.177Z,18.50
2023-01-01T02:10:48.242Z,18.50
2023-01-01T02:13:15.531Z,18.50
2023-01-01T02:15:54.683Z,18.50
2023-01-01T02:18:28.489Z,18.50
2023-01-01T02:21:05.150Z,18.50
2023-01-01T02:23:53.623Z,18.50
2023-01-01T02:26:38.711Z,18.50
2023-01-01T02:29:26.162Z,18.50
2023-01-01T02:32:02.852Z,18.60
2023-01-01T02:34:41.367Z,18.60
2023-01-01T02:37:11.702Z,18.60
2023-01-01T02:39:50.270Z,18.60
2023-01-01T02:42:17.663Z,18.60
2023-01-01T02:44:49.093Z,18.60
2023-01-01T02:47:20.818Z,18.60
2023-01-01T02:50:01.635Z,18.60
2023-01-01T02:53:08.995Z,18.60
2023-01-01T02:55:54.832Z,18.60
2023-01-01T02:59:06.588Z,18.60
2023-01-01T03:01:50.694Z,18.60
2023-01-01T03:04:47.436Z,18.60
2023-01-01T03:07:50.906Z,18.60
2023-01-01T03:10:49.451Z,18.60
2023-01-01T03:13:29.065Z,18.70
2023-01-01T03:16:04.140Z,18.70
2023-01-01T03:19:10.984Z,18.70
2023-01-01T03:21:45.922Z,18.70
2023-01-01T03:24:46.779Z,18.80
2023-01-01T03:27:31.332Z,18.80
2023-01-01T03:30:08.415Z,18.80
2023-01-01T03:33:01.502Z,18.90
2023-01-01T03:35:37.155Z,18.90
2023-01-01T03:38:13.788Z,18.90
2023-01-01T03:40:42.397Z,19.00
2023-01-01T03:43:19.329Z,19.00
2023-01-01T03:45:48.924Z,19.00
2023-01-01T03:48:17.161Z,19.00
2023-01-01T03:51:10.204Z,19.00
2023-01-01T03:53:41.640Z,19.00
2023-01-01T03:56:19.990Z,19.00
2023-01-01T03:59:07.169Z,19.00
2023-01-01T04:01:40.867Z,19.00
2023-01-01T04:04:08.395Z,18.90
2023-01-01T04:06:35.296Z,18.90
2023-01-01T04:09:04.735Z,18.90
2023-01-01T04:11:52.033Z,18.80
2023-01-01T04:14:42.118Z,18.80
2023-01-01T04:17:12.244Z,18.90
2023-01-01T04:19:39.273Z,18.80
2023-01-01T04:22:06.576Z,18.80
2023-01-01T04:24:33.484Z,18.80
2023-01-01T04:27:00.599Z,18.80
2023-01-01T04:29:27.542Z,18.90
2023-01-01T04:31:54.551Z,18.80
2023-01-01T04:34:21.443Z,18.80
2023-01-01T04:36:48.314Z,18.80
2023-01-01T04:39:15.215Z,18.80
2023-01-01T04:41:42.078Z,18.80
2023-01-01T04:44:08.971Z,18.80
2023-01-01T04:46:35.883Z,18.70
2023-01-01T04:49:02.750Z,18.70
2023-01-01T04:51:29.653Z,18.70
2023-01-01T04:53:56.528Z,18.80
2023-01-01T04:56:24.018Z,18.80
2023-01-01T04:58:50.978Z,18.80
2023-01-01T05:01:25.615Z,18.80
2023-01-01T05:03:53.368Z,18.80
2023-01-01T05:06:20.530Z,18.80
2023-01-01T05:08:50.341Z,18.70
2023-01-01T05:11:21.221Z,18.70
2023-01-01T05:13:51.061Z,18.70
2023-01-01T05:16:25.170Z,18.70
2023-01-01T05:18:52.466Z,18.70
2023-01-01T05:21:26.161Z,18.70
2023-01-01T05:23:59.336Z,18.70
2023-01-01T05:26:30.380Z,18.80
2023-01-01T05:28:57.873Z,18.70
2023-01-01T05:31:28.977Z,18.70
2023-01-01T05:36:27.934Z,18.80
2023-01-01T05:38:55.194Z,18.70
2023-01-01T05:41:23.214Z,18.80
2023-01-01T05:43:51.350Z,18.80
2023-01-01T05:46:21.706Z,18.80
2023-01-01T05:48:49.230Z,18.80
2023-01-01T05:51:26.451Z,18.90
2023-01-01T05:53:58.284Z,18.90
2023-01-01T05:56:26.274Z,18.90
2023-01-01T05:58:53.399Z,18.90
2023-01-01T06:01:30.845Z,18.90
2023-01-01T06:03:59.991Z,18.90
2023-01-01T06:06:33.233Z,18.80
2023-01-01T06:09:04.187Z,18.80
2023-01-01T06:11:32.382Z,18.80
2023-01-01T06:14:00.773Z,18.80
2023-01-01T06:16:29.836Z,18.80
2023-01-01T06:18:56.791Z,18.70
2023-01-01T06:21:29.075Z,18.70
2023-01-01T06:23:57.931Z,18.60
2023-01-01T06:26:34.231Z,18.60
2023-01-01T06:29:02.787Z,18.60
2023-01-01T06:31:35.627Z,18.50
2023-01-01T06:34:05.411Z,18.50
2023-01-01T06:36:32.340Z,18.40
2023-01-01T06:39:00.054Z,18.30
2023-01-01T06:41:28.402Z,18.30
2023-01-01T06:44:00.850Z,18.20
2023-01-01T06:46:34.278Z,18.20
2023-01-01T06:49:07.946Z,18.10
2023-01-01T06:51:43.038Z,18.00
2023-01-01T06:54:11.132Z,18.00
2023-01-01T06:56:39.080Z,18.00
2023-01-01T06:59:06.174Z,17.90
2023-01-01T07:01:36.009Z,17.90
2023-01-01T07:04:08.300Z,17.90
2023-01-01T07:06:36.420Z,17.90
2023-01-01T07:09:04.365Z,17.80
2023-01-01T07:11:31.750Z,17.80
2023-01-01T07:13:58.714Z,17.80
2023-01-01T07:16:26.029Z,17.80
2023-01-01T07:18:53.167Z,17.80
2023-01-01T07:21:52.896Z,17.90
2023-01-01T07:24:20.357Z,17.90
2023-01-01T07:26:48.892Z,18.00
2023-01-01T07:29:16.183Z,18.00
2023-01-01T07:31:44.459Z,17.90
2023-01-01T07:34:22.894Z,17.90
2023-01-01T07:36:50.770Z,17.90
2023-01-01T07:39:17.666Z,18.00
2023-01-01T07:41:45.228Z,18.00
2023-01-01T07:44:13.558Z,18.00
2023-01-01T07:46:40.577Z,18.00
2023-01-01T07:49:07.497Z,18.00
2023-01-01T07:51:34.417Z,18.10
2023-01-01T07:54:06.617Z,18.10
2023-01-01T07:56:35.670Z,18.20
2023-01-01T07:59:02.576Z,18.20
2023-01-01T08:01:29.630Z,18.20
2023-01-01T08:03:56.556Z,18.20
2023-01-01T08:06:23.453Z,18.20
2023-01-01T08:08:50.384Z,18.20
2023-01-01T08:11:17.450Z,18.20
2023-01-01T08:13:44.344Z,18.30
2023-01-01T08:16:11.259Z,18.30
2023-01-01T08:18:38.412Z,18.30
2023-01-01T08:21:05.881Z,18.30
2023-01-01T08:23:32.764Z,18.30
2023-01-01T08:26:02.255Z,18.30
2023-01-01T08:28:30.730Z,18.40
2023-01-01T08:30:57.953Z,18.40
2023-01-01T08:33:26.111Z,18.40
2023-01-01T08:35:54.654Z,18.40
2023-01-01T08:38:22.091Z,18.40
2023-01-01T08:40:48.991Z,18.50
2023-01-01T08:43:15.938Z,18.50
2023-01-01T08:45:42.888Z,18.50
2023-01-01T08:48:10.541Z,18.50
2023-01-01T08:50:37.635Z,18.40
2023-01-01T08:53:04.665Z,18.50
2023-01-01T08:55:31.554Z,18.50
2023-01-01T08:57:58.479Z,18.50
2023-01-01T09:00:25.422Z,18.50
2023-01-01T09:02:52.541Z,18.50
2023-01-01T09:05:20.142Z,18.50
2023-01-01T09:07:47.088Z,18.60
2023-01-01T09:10:13.979Z,18.60
2023-01-01T09:12:40.877Z,18.60
2023-01-01T09:15:14.861Z,18.60
2023-01-01T09:17:41.748Z,18.60
2023-01-01T09:20:09.068Z,18.60
2023-01-01T09:22:35.967Z,18.60
2023-01-01T09:25:02.845Z,18.60
2023-01-01T09:27:29.748Z,18.70
2023-01-01T09:29:56.652Z,18.70
2023-01-01T09:32:24.000Z,18.70
2023-01-01T09:34:52.679Z,18.70
2023-01-01T09:37:19.758Z,18.70
2023-01-01T09:39:46.785Z,18.70
2023-01-01T09:42:37.879Z,18.70
2023-01-01T09:45:25.575Z,18.70
2023-01-01T09:48:00.510Z,18.70
2023-01-01T09:50:38.777Z,18.60
2023-01-01T09:53:32.688Z,18.60
2023-01-01T09:56:05.194Z,18.50
2023-01-01T09:58:36.434Z,18.50
2023-01-01T10:01:20.295Z,18.50
2023-01-01T10:04:22.270Z,18.50
2023-01-01T10:07:13.843Z,18.50
2023-01-01T10:10:14.259Z,18.50
2023-01-01T10:12:54.889Z,18.50
2023-01-01T10:15:31.103Z,18.50
2023-01-01T10:18:00.825Z,18.50
2023-01-01T10:21:08.818Z,18.50
2023-01-01T10:23:44.216Z,18.60
2023-01-01T10:26:19.624Z,18.60
2023-01-01T10:29:03.569Z,18.50
2023-01-01T10:31:37.150Z,18.50
2023-01-01T10:34:17.495Z,18.60
2023-01-01T10:36:44.948Z,18.60
2023-01-01T10:39:16.384Z,18.60
2023-01-01T10:41:47.371Z,18.60
2023-01-01T10:44:18.443Z,18.60
2023-01-01T10:46:50.899Z,18.70
2023-01-01T10:49:17.759Z,18.60
2023-01-01T10:51:50.364Z,18.60
2023-01-01T10:54:37.761Z,18.60
2023-01-01T10:57:20.869Z,18.60
2023-01-01T10:59:53.770Z,18.70
2023-01-01T11:02:24.853Z,18.60
2023-01-01T11:04:53.902Z,18.70
2023-01-01T11:07:34.028Z,18.70
2023-01-01T11:10:05.221Z,18.80
2023-01-01T11:15:39.278Z,18.80
2023-01-01T11:18:12.696Z,18.80
2023-01-01T11:20:40.383Z,18.80
2023-01-01T11:23:35.054Z,18.80
2023-01-01T11:26:05.424Z,18.90
2023-01-01T11:28:35.122Z,18.90
2023-01-01T11:31:15.958Z,18.90
2023-01-01T11:33:55.551Z,18.90
2023-01-01T11:36:30.079Z,18.90
2023-01-01T11:39:20.041Z,18.90
2023-01-01T11:41:52.790Z,18.90
2023-01-01T11:44:49.043Z,18.90
2023-01-01T11:47:35.978Z,18.80
2023-01-01T11:50:19.759Z,18.80
2023-01-01T11:52:49.722Z,18.80
2023-01-01T11:55:45.829Z,18.80
2023-01-01T11:58:31.749Z,18.80
2023-01-01T12:01:10.160Z,18.80
2023-01-01T12:03:58.806Z,18.80
2023-01-01T12:06:53.395Z,18.80
2023-01-01T12:09:55.088Z,18.80
2023-01-01T12:12:51.141Z,18.80
2023-01-01T12:15:28.820Z,18.80
2023-01-01T12:18:16.422Z,18.80
2023-01-01T12:21:08.538Z,18.80
2023-01-01T12:23:36.470Z,18.80
2023-01-01T12:26:17.369Z,18.80
2023-01-01T12:29:12.398Z,18.70
2023-01-01T12:31:57.702Z,18.70
2023-01-01T12:34:56.855Z,18.60
2023-01-01T12:37:55.021Z,18.60
2023-01-01T12:40:51.564Z,18.50
2023-01-01T12:43:47.515Z,18.60
2023-01-01T12:46:54.277Z,18.50
2023-01-01T12:49:51.050Z,18.60
2023-01-01T12:52:49.545Z,18.50
2023-01-01T12:55:59.268Z,18.50
2023-01-01T12:58:50.577Z,18.50
2023-01-01T13:01:22.760Z,18.50
2023-01-01T13:03:55.177Z,18.50
2023-01-01T13:06:38.440Z,18.50
2023-01-01T13:09:15.878Z,18.50
2023-01-01T13:11:46.440Z,18.50
2023-01-01T13:14:13.379Z,18.40
2023-01-01T13:16:42.399Z,18.40
2023-01-01T13:19:34.318Z,18.40
2023-01-01T13:22:26.888Z,18.40
2023-01-01T13:25:13.854Z,18.30
2023-01-01T13:28:03.358Z,18.30
2023-01-01T13:30:36.982Z,18.20
2023-01-01T13:33:33.262Z,18.20
2023-01-01T13:36:12.035Z,18.10
2023-01-01T13:38:58.335Z,18.10
2023-01-01T13:41:43.409Z,18.00
2023-01-01T13:44:11.581Z,18.00
2023-01-01T13:46:44.359Z,17.90
2023-01-01T13:49:55.852Z,17.80
2023-01-01T13:52:54.782Z,17.80
2023-01-01T13:55:56.680Z,17.80
2023-01-01T13:58:43.411Z,17.70
2023-01-01T14:01:13.266Z,17.70
2023-01-01T14:03:48.673Z,17.60
2023-01-01T14:06:36.583Z,17.60
2023-01-01T14:09:17.126Z,17.50
2023-01-01T14:11:44.037Z,17.50
2023-01-01T14:14:24.585Z,17.40
2023-01-01T14:16:53.852Z,17.50
2023-01-01T14:19:21.219Z,17.40
2023-01-01T14:21:48.316Z,17.40
2023-01-01T14:24:18.203Z,17.40
2023-01-01T14:26:45.845Z,17.30
2023-01-01T14:29:27.251Z,17.20
2023-01-01T14:31:54.698Z,17.20
2023-01-01T14:34:32.689Z,17.20
2023-01-01T14:37:07.251Z,17.20
2023-01-01T14:39:36.771Z,17.20
2023-01-01T14:42:16.924Z,17.20
2023-01-01T14:44:49.739Z,17.10
2023-01-01T14:47:29.469Z,17.10
2023-01-01T14:50:04.647Z,17.10
2023-01-01T14:52:34.075Z,17.00
2023-01-01T14:55:02.238Z,17.00
2023-01-01T14:57:35.832Z,17.00
2023-01-01T15:00:20.507Z,17.00
2023-01-01T15:02:47.511Z,16.90
2023-01-01T15:05:23.280Z,16.90
2023-01-01T15:08:01.707Z,16.80
2023-01-01T15:10:31.333Z,16.80
2023-01-01T15:12:58.980Z,16.80
2023-01-01T15:15:42.357Z,16.80
2023-01-01T15:18:37.757Z,16.70
2023-01-01T15:21:42.720Z,16.70
2023-01-01T15:24:11.799Z,16.70
2023-01-01T15:26:52.799Z,16.60
2023-01-01T15:29:29.785Z,16.60
2023-01-01T15:32:13.586Z,16.60
2023-01-01T15:35:05.448Z,16.60
2023-01-01T15:37:46.355Z,16.50
2023-01-01T15:40:13.129Z,16.50
2023-01-01T15:43:08.175Z,16.40
2023-01-01T15:45:40.295Z,16.40
2023-01-01T15:48:31.033Z,16.30
2023-01-01T15:51:14.369Z,16.30
2023-01-01T15:53:54.891Z,16.30
2023-01-01T15:56:27.351Z,16.20
2023-01-01T15:59:08.661Z,16.20
2023-01-01T16:01:39.857Z,16.20
2023-01-01T16:04:28.276Z,16.10
2023-01-01T16:06:58.244Z,16.10
2023-01-01T16:09:25.674Z,16.00
2023-01-01T16:11:55.662Z,16.00
2023-01-01T16:14:23.062Z,16.00
2023-01-01T16:16:57.117Z,16.00
2023-01-01T16:19:24.730Z,15.90
2023-01-01T16:21:51.627Z,15.90
2023-01-01T16:24:20.062Z,15.90
2023-01-01T16:26:47.838Z,15.90
2023-01-01T16:29:15.081Z,15.90
2023-01-01T16:31:43.196Z,15.90
2023-01-01T16:34:16.294Z,15.80
2023-01-01T16:36:44.632Z,15.80
2023-01-01T16:39:11.974Z,15.80
2023-01-01T16:41:43.593Z,15.80
2023-01-01T16:44:16.226Z,15.70
2023-01-01T16:46:43.422Z,15.70
2023-01-01T16:49:10.346Z,15.70
2023-01-01T16:51:42.151Z,15.70
2023-01-01T16:54:10.394Z,15.70
2023-01-01T16:56:37.730Z,15.60
2023-01-01T16:59:04.641Z,15.60
2023-01-01T17:01:31.736Z,15.60
2023-01-01T17:03:59.676Z,15.60
2023-01-01T17:06:26.624Z,15.60
2023-01-01T17:08:53.662Z,15.60
2023-01-01T17:11:22.469Z,15.60
2023-01-01T17:13:49.372Z,15.60
2023-01-01T17:16:23.509Z,15.60
2023-01-01T17:21:42.225Z,15.60
2023-01-01T17:24:09.174Z,15.60
2023-01-01T17:26:36.111Z,15.60
2023-01-01T17:29:03.377Z,15.60
2023-01-01T17:31:30.651Z,15.60
2023-01-01T17:33:57.680Z,15.60
2023-01-01T17:36:27.073Z,15.60
2023-01-01T17:38:54.713Z,15.60
2023-01-01T17:41:22.619Z,15.60
2023-01-01T17:43:51.558Z,15.60
2023-01-01T17:46:24.508Z,15.40
2023-01-01T17:48:52.426Z,15.60
2023-01-01T17:51:20.126Z,15.60
2023-01-01T17:53:47.386Z,15.60
2023-01-01T17:56:17.574Z,15.60
2023-01-01T17:58:46.235Z,15.70
2023-01-01T18:01:13.121Z,15.70
2023-01-01T18:03:41.427Z,15.70
2023-01-01T18:06:08.963Z,15.70
2023-01-01T18:08:35.851Z,15.70
2023-01-01T18:11:02.752Z,15.70
2023-01-01T18:13:29.827Z,15.70
2023-01-01T18:16:01.632Z,15.70
2023-01-01T18:18:30.837Z,15.70
2023-01-01T18:21:14.219Z,15.80
2023-01-01T18:23:41.797Z,15.80
2023-01-01T18:26:10.861Z,15.70
2023-01-01T18:28:38.879Z,15.70
2023-01-01T18:31:09.960Z,15.70
2023-01-01T18:33:37.817Z,15.80
2023-01-01T18:36:08.385Z,15.80
2023-01-01T18:38:36.021Z,15.80
2023-01-01T18:41:41.109Z,15.80
2023-01-01T18:44:30.678Z,15.80
2023-01-01T18:47:13.472Z,15.80
2023-01-01T18:49:46.390Z,15.80
2023-01-01T18:52:27.756Z,15.80
2023-01-01T18:55:26.883Z,15.80
2023-01-01T18:58:08.580Z,15.80
2023-01-01T19:00:37.160Z,15.70
2023-01-01T19:03:15.149Z,15.70
2023-01-01T19:05:42.112Z,15.80
2023-01-01T19:08:08.870Z,15.70
2023-01-01T19:10:49.470Z,15.70
2023-01-01T19:13:33.032Z,15.70
2023-01-01T19:16:24.889Z,15.70
2023-01-01T19:18:53.344Z,15.70
2023-01-01T19:21:23.759Z,15.70
2023-01-01T19:23:55.496Z,15.80
2023-01-01T19:26:40.165Z,15.70
2023-01-01T19:29:20.818Z,15.70
2023-01-01T19:31:50.621Z,15.70
2023-01-01T19:34:18.087Z,15.70
2023-01-01T19:36:46.238Z,15.70
2023-01-01T19:39:13.739Z,15.70
2023-01-01T19:41:41.220Z,15.60
2023-01-01T19:44:10.426Z,15.60
2023-01-01T19:46:39.032Z,15.60
2023-01-01T19:49:06.041Z,15.50
2023-01-01T19:51:32.985Z,15.50
2023-01-01T19:53:59.917Z,15.50
2023-01-01T19:56:27.124Z,15.50
2023-01-01T19:58:54.011Z,15.50
2023-01-01T20:01:21.174Z,15.50
2023-01-01T20:03:57.179Z,15.50
2023-01-01T20:06:25.715Z,15.50
2023-01-01T20:08:53.085Z,15.40
2023-01-01T20:11:20.996Z,15.40
2023-01-01T20:13:48.338Z,15.40
2023-01-01T20:16:15.349Z,15.50
2023-01-01T20:18:42.277Z,15.40
2023-01-01T20:21:28.149Z,15.40
2023-01-01T20:23:56.201Z,15.40
2023-01-01T20:26:25.395Z,15.40
2023-01-01T20:29:11.111Z,15.40
2023-01-01T20:31:38.101Z,15.40
2023-01-01T20:34:05.061Z,15.40
2023-01-01T20:36:50.887Z,15.40
2023-01-01T20:39:17.765Z,15.40
2023-01-01T20:41:44.662Z,15.50
2023-01-01T20:44:11.568Z,15.40
2023-01-01T20:46:38.586Z,15.40
2023-01-01T20:49:05.927Z,15.40
2023-01-01T20:51:33.212Z,15.40
2023-01-01T20:54:00.179Z,15.50
2023-01-01T20:56:27.919Z,15.40
2023-01-01T20:59:00.061Z,15.40
2023-01-01T21:01:30.539Z,15.40
2023-01-01T21:03:57.528Z,15.50
2023-01-01T21:06:24.968Z,15.50
2023-01-01T21:08:52.652Z,15.40
2023-01-01T21:11:19.619Z,15.50
2023-01-01T21:13:47.823Z,15.50
2023-01-01T21:16:29.003Z,15.50
2023-01-01T21:18:56.925Z,15.50
2023-01-01T21:21:47.682Z,15.50
2023-01-01T21:24:23.567Z,15.50
2023-01-01T21:26:59.863Z,15.50
2023-01-01T21:29:32.300Z,15.60
2023-01-01T21:32:23.450Z,15.60
2023-01-01T21:34:52.474Z,15.60
2023-01-01T21:37:52.163Z,15.60
2023-01-01T21:40:22.080Z,15.60
2023-01-01T21:42:49.622Z,15.60
2023-01-01T21:45:31.478Z,15.60
2023-01-01T21:48:32.752Z,15.50
2023-01-01T21:51:01.135Z,15.60
2023-01-01T21:53:38.931Z,15.50
2023-01-01T21:56:27.605Z,15.50
2023-01-01T21:59:15.025Z,15.50
2023-01-01T22:01:45.078Z,15.50
2023-01-01T22:04:26.317Z,15.50
2023-01-01T22:07:47.817Z,15.50
2023-01-01T22:10:19.384Z,15.50
2023-01-01T22:12:46.927Z,15.50
2023-01-01T22:15:41.282Z,15.50
2023-01-01T22:18:17.212Z,15.50
2023-01-01T22:20:45.985Z,15.50
2023-01-01T22:23:38.665Z,15.60
2023-01-01T22:26:17.985Z,15.50
2023-01-01T22:28:47.538Z,15.50
2023-01-01T22:31:25.467Z,15.60
2023-01-01T22:33:55.293Z,15.50
2023-01-01T22:36:28.593Z,15.50
2023-01-01T22:39:01.589Z,15.50
2023-01-01T22:41:28.931Z,15.50
2023-01-01T22:44:01.702Z,15.50
2023-01-01T22:46:38.650Z,15.50
2023-01-01T22:49:22.898Z,15.50
2023-01-01T22:51:54.792Z,15.50
2023-01-01T22:54:21.711Z,15.50
2023-01-01T22:56:50.051Z,15.40
2023-01-01T22:59:17.029Z,15.40
2023-01-01T23:01:44.076Z,15.40
2023-01-01T23:04:11.015Z,15.40
2023-01-01T23:06:38.470Z,15.40
2023-01-01T23:09:05.975Z,15.40
2023-01-01T23:11:32.894Z,15.30
2023-01-01T23:14:18.085Z,15.30
2023-01-01T23:16:45.016Z,15.30
2023-01-01T23:19:12.505Z,15.30
2023-01-01T23:21:42.285Z,15.30
2023-01-01T23:24:15.594Z,15.30
2023-01-01T23:26:43.229Z,15.20
2023-01-01T23:29:11.696Z,15.20
2023-01-01T23:31:40.092Z,15.20
2023-01-01T23:34:07.917Z,15.20
2023-01-01T23:36:35.035Z,15.10
2023-01-01T23:39:01.956Z,15.10
2023-01-01T23:41:28.893Z,15.10
2023-01-01T23:43:55.753Z,15.10
2023-01-01T23:46:22.861Z,15.10
2023-01-01T23:48:49.939Z,15.10
2023-01-01T23:51:19.243Z,15.10
2023-01-01T23:53:46.476Z,15.20
2023-01-01T23:56:13.455Z,15.10
2023-01-01T23:58:40.360Z,15.10
